Etusivu
METAR-TAF:

METAR-TAF

Lentoasemat :

Sotilaslentoasema

Hachinohe, Japani

Leveyspiiri: 40-33N, Pituuspiiri: 141-28E, korkeus merenpinnasta: 46 m

Tämänhetkinen sää

Tämä raportti tehtiin 16 tuntia ja 36 minuuttia sitten, kello 02.49 UTC
Tuuli 15 kn lännestä/lounaasta puuskistuen 25 kn:hen, vaihdellen etelän/lounaan ja lännen välillä
Lämpötila 14°C
Kosteus 33%
Ilmanpaine 1013 hPa
Näkyvyys 10 km tai enemmän
Muutamia pilviä 3000 ft:n korkeudessa
Hajonneita pilviä 23000 ft:n korkeudessa

METAR: RJSH 190249Z 24015G25KT 210V280 9999 FEW030 BKN230 14/M02 Q1013 RMK 1CU030 A2991

Aika: 04:25 (19:25 UTC)


TAF: puuttuu

Säähavainnot ja -ennusteet yli 4000 lentoasemalta (METAR- ja TAF-raportit).

Käytössä olevat sääasemat on merkitty karttaan keltaisilla ja punaisilla pisteillä.

Aseta hiiri pisteen päälle nähdäksesi sääaseman nimen.

Klikkaa sitten nähdäksesi säähavainnot ja -ennusteet.

Kartan vaihtaminen: klikkaa mustalla rastilla varustettuja vihreitä pisteitä, niin voit zoomata sisään; viivalla varustettua vihreää pistettä, niin voit zoomata ulos tai vihreitä nuolia, niin pääset viereisille kartoille.


METAR-TAF: